Time;durP1;ratioP1;P1;durP2;ratioP2;P2;SDS_P1;SDS_P2;PMS_P1;PMS_P2;Temp;Humidity;BMP_temperature;BMP_pressure;BME280_temperature;BME280_humidity;BME280_pressure;Samples;Min_cycle;Max_cycle;Signal;HPM_P1;HPM_P2
2023/03/20 00:00:36;;;;;;;15.60;11.27;;;;;;;3.92;70.94;97778.56;6133149;28;20653;-35
2023/03/20 00:03:38;;;;;;;14.63;11.53;;;;;;;3.94;71.27;97781.00;6134348;28;20246;-35
2023/03/20 00:06:40;;;;;;;14.43;12.60;;;;;;;3.99;71.50;97775.97;6134591;28;20303;-35
2023/03/20 00:09:42;;;;;;;15.53;12.03;;;;;;;3.97;71.93;97768.25;6134837;28;20321;-36
2023/03/20 00:12:47;;;;;;;14.60;11.63;;;;;;;4.16;72.00;97776.44;6134621;28;20235;-35
2023/03/20 00:15:50;;;;;;;16.57;12.10;;;;;;;4.15;72.00;97773.00;6134890;28;20717;-36
2023/03/20 00:18:52;;;;;;;15.67;12.60;;;;;;;4.20;72.54;97770.56;6135138;28;20237;-35
2023/03/20 00:21:55;;;;;;;14.73;11.83;;;;;;;4.23;72.56;97775.44;6134640;28;20234;-36
2023/03/20 00:24:57;;;;;;;16.20;13.67;;;;;;;4.25;72.40;97754.97;6133254;28;20332;-36
2023/03/20 00:27:59;;;;;;;15.67;12.43;;;;;;;4.28;72.63;97775.66;6133937;28;20257;-35
2023/03/20 00:31:01;;;;;;;14.17;11.93;;;;;;;4.33;72.55;97767.94;6129236;28;20742;-35
2023/03/20 00:34:09;;;;;;;16.57;12.47;;;;;;;4.39;72.54;97769.81;6133709;28;20706;-36
2023/03/20 00:37:11;;;;;;;17.20;12.33;;;;;;;4.43;72.49;97764.13;6133993;28;20716;-36
2023/03/20 00:40:14;;;;;;;15.60;13.17;;;;;;;4.41;72.46;97759.03;6133626;28;20329;-36
2023/03/20 00:43:16;;;;;;;14.63;11.40;;;;;;;4.43;72.55;97757.00;6133495;28;20242;-36
2023/03/20 00:46:20;;;;;;;16.33;12.33;;;;;;;4.48;72.17;97751.94;6134668;28;20241;-35
2023/03/20 00:49:25;;;;;;;18.30;13.83;;;;;;;4.40;72.15;97749.50;6148892;28;20238;-35
2023/03/20 00:52:27;;;;;;;18.57;14.90;;;;;;;4.32;72.81;97742.59;6131127;28;20297;-35
2023/03/20 00:55:29;;;;;;;16.27;12.93;;;;;;;4.32;73.31;97747.06;6133948;28;20264;-36
2023/03/20 00:58:31;;;;;;;17.17;13.60;;;;;;;4.45;73.04;97749.72;6134961;28;20257;-37
2023/03/20 01:01:34;;;;;;;15.67;12.50;;;;;;;4.52;73.03;97747.09;6138253;28;20241;-36
2023/03/20 01:04:39;;;;;;;16.13;12.77;;;;;;;4.51;73.08;97754.19;6138287;28;20226;-36
2023/03/20 01:07:41;;;;;;;16.27;13.43;;;;;;;4.57;73.60;97748.09;6133580;28;20235;-36
2023/03/20 01:10:45;;;;;;;16.13;13.33;;;;;;;4.68;73.95;97746.72;6148473;28;20231;-36
2023/03/20 01:13:51;;;;;;;17.60;13.37;;;;;;;4.70;74.36;97741.22;6133105;28;20317;-35
2023/03/20 01:16:53;;;;;;;17.27;14.40;;;;;;;4.90;74.91;97750.75;6134326;28;20289;-35
2023/03/20 01:19:55;;;;;;;20.07;14.00;;;;;;;5.06;75.13;97754.00;6132476;28;20262;-36
2023/03/20 01:22:57;;;;;;;19.97;16.07;;;;;;;5.15;75.48;97756.22;6114253;28;20286;-35
2023/03/20 01:25:59;;;;;;;18.87;14.73;;;;;;;5.22;75.43;97740.38;6133319;28;20921;-36
2023/03/20 01:29:03;;;;;;;20.20;15.60;;;;;;;5.33;75.52;97744.22;6131653;28;20324;-36
2023/03/20 01:32:12;;;;;;;22.03;16.67;;;;;;;5.56;76.25;97752.47;6125990;28;20322;-36
2023/03/20 01:35:17;;;;;;;20.83;16.30;;;;;;;5.73;75.62;97752.03;6132625;28;20246;-36
2023/03/20 01:38:23;;;;;;;22.93;18.20;;;;;;;5.99;76.51;97759.88;6131748;28;20722;-36
2023/03/20 01:41:28;;;;;;;21.00;16.00;;;;;;;6.08;75.41;97740.09;6148467;28;20722;-36
2023/03/20 01:44:33;;;;;;;20.17;14.93;;;;;;;6.26;74.99;97759.75;6131020;28;20322;-36
2023/03/20 01:47:35;;;;;;;19.40;14.93;;;;;;;6.29;74.74;97767.25;6127398;29;20231;-36
2023/03/20 01:50:37;;;;;;;17.57;13.67;;;;;;;6.28;74.27;97765.66;6130681;28;20246;-36
2023/03/20 01:53:50;;;;;;;18.87;15.43;;;;;;;6.30;74.22;97763.59;6138308;28;20247;-36
2023/03/20 01:57:03;;;;;;;17.30;14.50;;;;;;;6.28;73.92;97768.28;6136878;28;20234;-35
2023/03/20 02:00:10;;;;;;;20.17;14.47;;;;;;;6.32;73.99;97758.91;6130736;28;20235;-36
2023/03/20 02:03:16;;;;;;;19.90;15.50;;;;;;;6.13;73.79;97742.13;6127184;28;20216;-36
2023/03/20 02:06:44;;;;;;;18.50;14.63;;;;;;;6.26;74.21;97762.41;6132539;28;20243;-36
2023/03/20 02:09:52;;;;;;;18.37;14.37;;;;;;;6.25;74.41;97760.75;6130608;28;20240;-35
2023/03/20 02:13:04;;;;;;;19.47;15.60;;;;;;;6.16;74.77;97747.00;6126291;28;20256;-35
2023/03/20 02:16:15;;;;;;;20.93;16.23;;;;;;;6.30;74.59;97758.28;6131588;28;20249;-35
2023/03/20 02:20:03;;;;;;;17.77;15.57;;;;;;;6.18;74.30;97760.81;6127669;28;20241;-35
2023/03/20 02:23:37;;;;;;;17.30;15.00;;;;;;;6.25;73.97;97766.88;6108310;28;20219;-35
2023/03/20 02:26:58;;;;;;;15.33;13.73;;;;;;;6.24;73.84;97770.53;6088867;28;20249;-35
2023/03/20 02:30:37;;;;;;;16.60;14.80;;;;;;;6.17;73.58;97767.13;6130835;28;20245;-35
2023/03/20 02:34:16;;;;;;;16.57;13.80;;;;;;;6.07;73.20;97761.50;6142773;28;20227;-36
2023/03/20 02:37:55;;;;;;;17.73;13.77;;;;;;;6.05;73.67;97771.44;6144979;28;20243;-36
2023/03/20 02:41:19;;;;;;;17.67;13.70;;;;;;;5.97;73.57;97766.41;6143235;28;20233;-36
2023/03/20 02:44:52;;;;;;;16.90;14.20;;;;;;;5.91;73.54;97760.94;6127640;28;20244;-36
2023/03/20 02:48:14;;;;;;;15.57;13.00;;;;;;;5.86;73.71;97763.38;6127306;28;20238;-36
2023/03/20 02:51:35;;;;;;;16.33;13.00;;;;;;;5.85;74.01;97768.84;6126954;28;20596;-36
2023/03/20 02:54:51;;;;;;;16.67;13.63;;;;;;;5.59;74.44;97722.19;6125138;28;20247;-36
2023/03/20 02:58:13;;;;;;;16.80;14.30;;;;;;;5.85;73.97;97767.00;6137454;28;20236;-36
2023/03/20 03:01:21;;;;;;;17.33;13.30;;;;;;;5.83;74.10;97768.25;6130168;28;20270;-36
2023/03/20 03:04:31;;;;;;;17.17;13.73;;;;;;;5.77;74.00;97771.75;6127722;28;20703;-36
2023/03/20 03:07:35;;;;;;;14.83;12.60;;;;;;;5.75;74.21;97776.41;6130480;28;20250;-36
2023/03/20 03:10:43;;;;;;;16.57;14.00;;;;;;;5.65;74.36;97769.72;6126467;28;20296;-36
2023/03/20 03:13:53;;;;;;;16.63;13.03;;;;;;;5.73;74.42;97783.75;6131421;28;20318;-36
2023/03/20 03:16:58;;;;;;;18.27;13.33;;;;;;;5.68;74.49;97784.38;6131561;28;20241;-36
2023/03/20 03:20:14;;;;;;;15.27;13.00;;;;;;;5.64;74.80;97783.97;6128803;28;20228;-36
2023/03/20 03:23:44;;;;;;;17.03;13.33;;;;;;;5.63;74.94;97787.63;6124511;28;20235;-36
2023/03/20 03:26:46;;;;;;;20.10;14.87;;;;;;;5.67;75.47;97783.56;6142405;28;20238;-36
2023/03/20 03:29:59;;;;;;;20.77;14.00;;;;;;;5.69;75.41;97786.00;6135561;28;20930;-36
2023/03/20 03:33:20;;;;;;;17.37;13.50;;;;;;;5.63;75.46;97770.97;6142037;28;20614;-36
2023/03/20 03:36:54;;;;;;;15.90;12.93;;;;;;;5.79;75.95;97789.00;6148849;28;20754;-36
2023/03/20 03:40:28;;;;;;;15.70;12.83;;;;;;;5.88;75.57;97784.31;6131611;28;20319;-36
2023/03/20 03:43:39;;;;;;;17.57;13.40;;;;;;;5.84;75.58;97783.91;6132730;28;20293;-36
2023/03/20 03:46:56;;;;;;;19.93;15.07;;;;;;;5.79;75.79;97789.00;6129793;29;20237;-36
2023/03/20 03:50:15;;;;;;;19.00;13.07;;;;;;;5.74;75.47;97778.25;6134736;28;20241;-36
2023/03/20 03:53:29;;;;;;;18.33;13.53;;;;;;;5.75;75.27;97790.44;6147274;28;20240;-36
2023/03/20 03:56:33;;;;;;;15.93;13.00;;;;;;;5.76;75.23;97781.47;6131045;28;20706;-36
2023/03/20 03:59:40;;;;;;;14.37;12.70;;;;;;;5.50;75.05;97755.13;6133507;28;20264;-36
2023/03/20 04:02:45;;;;;;;15.47;13.23;;;;;;;5.70;75.57;97788.41;6148995;28;20281;-36
2023/03/20 04:05:50;;;;;;;15.40;13.30;;;;;;;5.57;75.31;97764.69;6130794;28;20741;-36
2023/03/20 04:08:54;;;;;;;18.57;13.77;;;;;;;5.71;75.33;97791.88;6145665;28;20701;-36
2023/03/20 04:11:56;;;;;;;14.00;12.43;;;;;;;5.68;75.42;97789.66;6133028;28;20240;-36
2023/03/20 04:14:58;;;;;;;14.00;12.13;;;;;;;5.67;75.31;97790.69;6134354;28;20748;-36
2023/03/20 04:18:04;;;;;;;15.20;13.03;;;;;;;5.59;75.46;97791.72;6123680;28;20232;-37
2023/03/20 04:21:08;;;;;;;17.17;12.80;;;;;;;5.47;75.91;97777.53;6133003;28;20216;-36
2023/03/20 04:24:10;;;;;;;17.57;13.63;;;;;;;5.59;76.48;97789.06;6133157;28;20224;-35
2023/03/20 04:27:13;;;;;;;13.93;12.43;;;;;;;5.67;76.34;97785.41;6133745;28;20514;-35
2023/03/20 04:30:16;;;;;;;14.43;12.93;;;;;;;5.69;76.37;97781.50;6133986;28;20330;-35
2023/03/20 04:33:51;;;;;;;18.60;13.47;;;;;;;5.80;77.59;97789.81;6121636;28;20716;-36
2023/03/20 04:37:07;;;;;;;14.80;13.20;;;;;;;5.98;76.82;97776.78;6131567;28;20237;-35
2023/03/20 04:40:43;;;;;;;14.27;12.50;;;;;;;5.87;76.31;97746.50;6126578;28;20634;-35
2023/03/20 04:43:45;;;;;;;15.73;13.47;;;;;;;5.92;76.57;97741.41;6132553;28;20246;-36
2023/03/20 04:46:47;;;;;;;14.53;12.60;;;;;;;6.23;75.61;97789.28;6128338;28;20822;-36
2023/03/20 04:49:50;;;;;;;14.97;12.77;;;;;;;6.23;75.33;97792.72;6133537;28;20255;-36
2023/03/20 04:52:53;;;;;;;13.40;11.83;;;;;;;6.22;75.47;97799.06;6132527;28;20713;-36
2023/03/20 04:55:55;;;;;;;16.90;12.13;;;;;;;6.19;75.34;97796.81;6133556;28;20605;-36
2023/03/20 04:58:57;;;;;;;13.90;12.30;;;;;;;6.15;75.15;97806.19;6133443;28;20239;-35
2023/03/20 05:01:59;;;;;;;13.37;11.63;;;;;;;6.04;75.18;97812.94;6131960;28;20239;-36
2023/03/20 05:05:02;;;;;;;15.70;11.33;;;;;;;6.05;75.18;97808.47;6132092;28;20301;-36
2023/03/20 05:08:05;;;;;;;12.10;10.73;;;;;;;6.01;74.95;97821.31;6132091;28;21046;-36
2023/03/20 05:11:10;;;;;;;13.87;12.33;;;;;;;5.89;75.07;97817.66;6128103;28;20249;-36
2023/03/20 05:14:45;;;;;;;15.20;11.00;;;;;;;5.60;74.85;97789.88;6131806;28;20278;-36
2023/03/20 05:18:07;;;;;;;17.60;12.47;;;;;;;5.76;75.83;97833.53;6129384;28;20263;-36
2023/03/20 05:21:23;;;;;;;15.33;12.07;;;;;;;5.78;75.27;97832.31;6132832;28;20299;-36
2023/03/20 05:24:45;;;;;;;13.60;10.97;;;;;;;5.82;75.32;97844.13;6129073;28;20235;-36
2023/03/20 05:27:50;;;;;;;15.37;11.53;;;;;;;5.82;75.94;97854.69;6129871;28;20243;-37
2023/03/20 05:31:30;;;;;;;13.83;11.50;;;;;;;5.91;75.67;97856.13;6120217;28;20916;-36
2023/03/20 05:34:47;;;;;;;13.43;11.50;;;;;;;5.95;75.61;97853.84;6126776;29;20703;-36
2023/03/20 05:38:21;;;;;;;12.07;10.20;;;;;;;6.01;75.53;97860.97;6063507;28;20233;-36
2023/03/20 05:41:46;;;;;;;12.93;10.97;;;;;;;5.94;75.30;97845.13;6124512;28;20281;-36
2023/03/20 05:45:18;;;;;;;14.13;11.67;;;;;;;6.07;75.70;97865.44;6118248;28;20231;-36
2023/03/20 05:48:30;;;;;;;12.87;11.53;;;;;;;6.16;75.54;97872.13;6131785;28;20680;-36
2023/03/20 05:52:02;;;;;;;11.73;10.40;;;;;;;6.30;75.55;97878.16;6046726;28;20712;-36
2023/03/20 05:55:19;;;;;;;14.23;11.67;;;;;;;6.09;75.52;97834.28;6126725;28;20233;-36
2023/03/20 05:58:50;;;;;;;13.40;11.77;;;;;;;6.31;75.49;97869.22;6096430;28;20247;-36
2023/03/20 06:02:13;;;;;;;13.10;11.33;;;;;;;6.61;75.42;97876.63;6136298;28;20274;-36
2023/03/20 06:05:22;;;;;;;13.17;11.37;;;;;;;6.75;75.14;97877.34;6128662;28;20238;-36
2023/03/20 06:08:26;;;;;;;14.13;11.30;;;;;;;6.73;74.93;97866.97;6129384;28;20288;-36
2023/03/20 06:11:29;;;;;;;14.87;11.90;;;;;;;6.86;74.69;97869.56;6131781;28;20253;-36
2023/03/20 06:14:31;;;;;;;14.67;12.07;;;;;;;6.97;75.15;97871.50;6131434;28;20364;-36
2023/03/20 06:17:38;;;;;;;14.30;11.03;;;;;;;7.25;74.70;97891.50;6126844;28;20225;-36
2023/03/20 06:20:40;;;;;;;18.50;11.67;;;;;;;7.36;74.34;97890.81;6129853;28;20246;-36
2023/03/20 06:23:43;;;;;;;17.50;12.57;;;;;;;7.58;74.71;97893.88;6137663;28;20263;-36
2023/03/20 06:26:45;;;;;;;16.30;12.80;;;;;;;8.07;73.95;97902.00;6130167;28;20609;-36
2023/03/20 06:29:48;;;;;;;14.67;12.50;;;;;;;8.37;73.13;97902.91;6127371;28;20272;-36
2023/03/20 06:32:55;;;;;;;16.10;11.90;;;;;;;8.99;71.23;97889.47;6130299;28;20238;-36
2023/03/20 06:36:04;;;;;;;14.43;11.23;;;;;;;9.37;69.79;97894.41;6126090;28;20214;-36
2023/03/20 06:39:07;;;;;;;12.23;10.93;;;;;;;9.65;68.58;97891.09;6129408;28;20211;-36
2023/03/20 06:42:11;;;;;;;15.13;10.80;;;;;;;9.86;67.03;97891.56;6129767;28;20357;-36
2023/03/20 06:45:18;;;;;;;13.27;9.93;;;;;;;10.15;66.65;97897.78;6121720;28;20210;-36
2023/03/20 06:48:32;;;;;;;11.77;10.33;;;;;;;10.17;65.61;97899.19;6129553;28;20317;-37
2023/03/20 06:51:39;;;;;;;11.93;10.23;;;;;;;10.32;65.34;97899.53;6141643;28;20318;-36
2023/03/20 06:54:42;;;;;;;12.40;10.03;;;;;;;10.32;64.89;97878.22;6138716;28;20265;-36
2023/03/20 06:57:44;;;;;;;15.07;9.97;;;;;;;10.53;64.32;97891.97;6139332;28;20630;-37
2023/03/20 07:00:50;;;;;;;10.93;9.27;;;;;;;10.69;63.92;97903.72;6147553;28;20243;-37
2023/03/20 07:03:53;;;;;;;11.17;8.90;;;;;;;10.75;63.56;97878.81;6134196;28;20242;-37
2023/03/20 07:07:00;;;;;;;11.60;8.93;;;;;;;10.89;62.57;97888.13;6135373;28;20236;-37
2023/03/20 07:10:03;;;;;;;13.53;9.87;;;;;;;11.07;62.01;97903.09;6133836;28;20350;-37
2023/03/20 07:13:05;;;;;;;12.77;9.10;;;;;;;11.02;61.79;97877.16;6134287;28;20251;-36
2023/03/20 07:16:10;;;;;;;12.70;9.13;;;;;;;11.40;61.25;97915.69;6130047;28;20375;-37
2023/03/20 07:19:14;;;;;;;9.50;8.43;;;;;;;11.45;61.10;97912.31;6135268;28;20261;-37
2023/03/20 07:22:24;;;;;;;11.53;9.50;;;;;;;11.38;61.31;97917.81;6133781;28;20705;-37
2023/03/20 07:25:33;;;;;;;12.63;9.27;;;;;;;11.43;61.02;97915.22;6130554;28;20328;-37
2023/03/20 07:28:47;;;;;;;12.37;9.20;;;;;;;11.52;61.12;97920.94;6133900;28;20247;-37
2023/03/20 07:31:54;;;;;;;13.10;9.53;;;;;;;11.43;59.78;97904.56;6133276;28;20272;-37
2023/03/20 07:35:01;;;;;;;13.03;10.10;;;;;;;11.67;59.10;97925.72;6134969;28;20783;-38
2023/03/20 07:38:05;;;;;;;10.93;8.63;;;;;;;11.93;59.15;97918.97;6134794;28;20274;-37
2023/03/20 07:41:11;;;;;;;9.90;7.70;;;;;;;12.28;57.60;97932.03;6138023;28;20256;-36
2023/03/20 07:44:18;;;;;;;10.33;8.13;;;;;;;12.51;56.20;97921.13;6147284;28;20229;-37
2023/03/20 07:47:25;;;;;;;11.20;8.17;;;;;;;12.88;54.80;97936.50;6140852;28;20772;-36
2023/03/20 07:50:27;;;;;;;9.53;8.07;;;;;;;13.46;53.55;97937.69;6134618;28;20380;-36
2023/03/20 07:53:29;;;;;;;8.90;7.97;;;;;;;13.08;53.38;97928.72;6133086;28;20244;-35
2023/03/20 07:56:31;;;;;;;8.30;6.83;;;;;;;14.58;50.83;97937.66;6134623;28;20268;-36
2023/03/20 07:59:33;;;;;;;9.00;8.03;;;;;;;14.46;50.50;97932.50;6134928;28;20284;-36
2023/03/20 08:02:36;;;;;;;9.07;7.90;;;;;;;14.17;51.10;97938.22;6134937;28;20237;-36
2023/03/20 08:05:38;;;;;;;8.27;7.47;;;;;;;13.76;52.73;97941.69;6141228;28;20284;-35
2023/03/20 08:08:41;;;;;;;9.30;7.13;;;;;;;13.64;52.85;97942.66;6133765;28;20806;-35
2023/03/20 08:11:43;;;;;;;9.00;7.10;;;;;;;13.54;53.40;97939.06;6134545;28;20757;-35
2023/03/20 08:14:45;;;;;;;7.57;6.77;;;;;;;14.43;51.84;97925.78;6129181;28;20263;-36
2023/03/20 08:17:47;;;;;;;7.13;5.30;;;;;;;15.92;46.74;97929.66;6135225;28;20227;-36
2023/03/20 08:20:49;;;;;;;8.97;5.87;;;;;;;15.48;48.06;97927.47;6134277;28;20321;-36
2023/03/20 08:23:51;;;;;;;6.80;5.80;;;;;;;16.62;45.47;97927.91;6132703;28;20218;-36
2023/03/20 08:26:53;;;;;;;6.97;5.70;;;;;;;19.71;39.17;97920.94;6134811;28;20722;-36
2023/03/20 08:29:55;;;;;;;6.00;4.97;;;;;;;20.32;36.17;97901.75;6132589;28;20914;-36
2023/03/20 08:32:58;;;;;;;5.50;4.67;;;;;;;20.86;35.28;97937.25;6134018;28;20325;-36
2023/03/20 08:36:00;;;;;;;5.50;5.00;;;;;;;21.43;33.77;97936.88;6134570;28;20237;-37
2023/03/20 08:39:02;;;;;;;5.23;4.33;;;;;;;22.11;33.29;97938.50;6132892;28;20226;-36
2023/03/20 08:42:05;;;;;;;4.43;4.03;;;;;;;22.23;32.00;97933.31;6129963;28;20297;-36
2023/03/20 08:45:08;;;;;;;5.10;3.87;;;;;;;21.75;33.25;97939.38;6132870;28;20703;-37
2023/03/20 08:48:10;;;;;;;4.20;3.60;;;;;;;21.13;34.47;97939.94;6133747;28;20215;-36
2023/03/20 08:51:12;;;;;;;7.47;4.73;;;;;;;19.27;38.00;97941.84;6133953;28;20238;-36
2023/03/20 08:54:17;;;;;;;5.17;4.07;;;;;;;17.85;40.33;97929.91;6131960;28;20240;-39
2023/03/20 08:57:19;;;;;;;5.20;4.33;;;;;;;17.19;42.72;97937.34;6133133;28;20289;-36
2023/03/20 09:00:22;;;;;;;6.23;4.73;;;;;;;16.27;44.01;97944.94;6132984;28;20234;-36
2023/03/20 09:03:24;;;;;;;4.43;3.93;;;;;;;15.71;45.56;97948.47;6133499;28;20927;-35
2023/03/20 09:06:26;;;;;;;4.10;3.70;;;;;;;15.40;46.05;97950.28;6132807;28;20234;-37
2023/03/20 09:09:29;;;;;;;5.23;3.77;;;;;;;15.78;45.90;97936.66;6131694;28;20738;-37
2023/03/20 09:12:31;;;;;;;3.93;3.07;;;;;;;15.82;45.33;97933.16;6134381;28;20238;-36
2023/03/20 09:15:34;;;;;;;5.07;3.70;;;;;;;15.96;45.60;97939.59;6132449;28;20321;-37
2023/03/20 09:18:37;;;;;;;3.90;3.50;;;;;;;15.70;45.40;97943.34;6133497;28;20239;-41
2023/03/20 09:21:39;;;;;;;4.40;3.27;;;;;;;16.07;44.96;97935.03;6130178;28;20585;-37
2023/03/20 09:24:41;;;;;;;4.57;3.57;;;;;;;16.23;44.51;97930.41;6130828;28;20605;-36
2023/03/20 09:27:43;;;;;;;4.53;3.10;;;;;;;16.48;43.89;97937.63;6133759;28;20612;-36
2023/03/20 09:30:45;;;;;;;4.77;3.87;;;;;;;15.96;44.26;97917.31;6130181;28;20648;-36
2023/03/20 09:33:47;;;;;;;4.30;2.93;;;;;;;15.98;44.44;97904.41;6132158;28;20235;-36
2023/03/20 09:36:50;;;;;;;4.37;3.70;;;;;;;16.24;44.40;97932.03;6130716;28;20753;-36
2023/03/20 09:39:52;;;;;;;3.70;2.87;;;;;;;16.21;44.07;97919.16;6132534;28;20559;-36
2023/03/20 09:43:09;;;;;;;3.40;2.80;;;;;;;16.00;43.97;97927.22;6132144;28;20246;-36
2023/03/20 09:46:49;;;;;;;3.87;2.80;;;;;;;15.94;44.71;97936.38;6130177;28;20231;-36
2023/03/20 09:50:20;;;;;;;3.90;2.83;;;;;;;15.71;44.63;97929.69;6131564;28;20261;-36
2023/03/20 09:53:33;;;;;;;3.50;2.57;;;;;;;15.51;44.99;97932.28;6131649;28;20809;-36
2023/03/20 09:56:36;;;;;;;3.33;2.43;;;;;;;15.21;45.42;97906.22;6132528;28;20234;-36
2023/03/20 09:59:38;;;;;;;2.47;1.70;;;;;;;15.58;44.77;97930.16;6111063;28;20286;-36
2023/03/20 10:03:07;;;;;;;2.00;1.60;;;;;;;15.62;44.29;97930.44;6131958;28;20241;-36
2023/03/20 10:06:15;;;;;;;3.30;1.80;;;;;;;16.11;44.01;97906.53;6129623;28;20222;-36
2023/03/20 10:09:23;;;;;;;2.17;1.80;;;;;;;16.76;43.05;97922.75;6132675;28;20227;-36
2023/03/20 10:13:06;;;;;;;3.07;2.77;;;;;;;16.43;43.99;97940.31;6106976;28;20913;-36
2023/03/20 10:16:23;;;;;;;4.40;3.17;;;;;;;16.12;43.94;97924.25;6104400;29;20235;-36
2023/03/20 10:19:32;;;;;;;3.20;2.90;;;;;;;16.23;43.99;97936.59;6102384;28;20343;-36
2023/03/20 10:22:37;;;;;;;3.23;2.40;;;;;;;16.38;42.91;97934.97;6103151;29;20712;-36
2023/03/20 10:25:45;;;;;;;2.80;2.33;;;;;;;16.11;43.92;97916.47;6106054;29;20380;-36
2023/03/20 10:28:58;;;;;;;4.63;2.53;;;;;;;16.81;43.48;97920.06;6104084;29;20402;-36
2023/03/20 10:32:34;;;;;;;3.90;2.73;;;;;;;16.81;43.27;97920.06;6104216;29;20246;-36
2023/03/20 10:36:00;;;;;;;3.77;2.80;;;;;;;17.01;41.66;97894.91;6103620;29;20230;-36
2023/03/20 10:39:10;;;;;;;2.13;1.93;;;;;;;17.53;40.62;97904.25;6104567;29;20313;-36
2023/03/20 10:42:26;;;;;;;3.10;2.70;;;;;;;17.11;41.35;97918.28;6104398;29;20760;-36
2023/03/20 10:45:43;;;;;;;2.93;2.57;;;;;;;17.05;41.50;97903.25;6103951;29;20308;-36
2023/03/20 10:49:13;;;;;;;3.20;2.60;;;;;;;17.44;40.86;97890.59;6104236;29;20726;-36
2023/03/20 10:52:22;;;;;;;3.10;2.13;;;;;;;17.65;40.24;97895.81;6116414;28;20261;-36
2023/03/20 10:55:29;;;;;;;3.43;2.77;;;;;;;18.06;39.64;97901.69;6127902;28;20242;-36
2023/03/20 10:58:38;;;;;;;3.57;2.33;;;;;;;17.56;39.59;97857.09;6130732;28;20245;-36
2023/03/20 11:01:40;;;;;;;4.70;2.83;;;;;;;17.64;40.38;97897.72;6145008;28;20325;-36
2023/03/20 11:04:42;;;;;;;3.50;2.60;;;;;;;17.17;41.46;97890.25;6130269;28;20725;-36
2023/03/20 11:07:48;;;;;;;3.97;2.70;;;;;;;17.22;41.06;97898.28;6131548;28;20694;-36
2023/03/20 11:10:59;;;;;;;3.80;3.17;;;;;;;17.02;41.59;97889.25;6130752;28;20234;-36
2023/03/20 11:14:22;;;;;;;3.20;2.80;;;;;;;17.33;41.00;97883.66;6128805;28;20685;-36
2023/03/20 11:17:27;;;;;;;4.47;3.00;;;;;;;17.31;41.38;97876.97;6128046;28;20237;-36
2023/03/20 11:21:00;;;;;;;3.23;2.93;;;;;;;16.99;41.86;97854.84;6131101;28;20227;-36
2023/03/20 11:24:03;;;;;;;6.03;2.80;;;;;;;17.11;41.65;97862.56;6078545;29;20279;-36
2023/03/20 11:27:18;;;;;;;2.90;2.47;;;;;;;17.18;40.83;97865.72;6079864;28;20708;-37
2023/03/20 11:30:21;;;;;;;3.40;2.97;;;;;;;16.98;41.18;97882.00;6080403;29;20254;-36
2023/03/20 11:33:26;;;;;;;3.47;3.13;;;;;;;16.35;42.25;97812.63;6080476;29;20303;-37
2023/03/20 11:36:31;;;;;;;2.87;2.47;;;;;;;17.02;41.52;97867.72;6081073;29;20238;-37
2023/03/20 11:39:36;;;;;;;4.00;2.90;;;;;;;17.05;41.52;97858.31;6080892;29;20389;-37
2023/03/20 11:42:38;;;;;;;3.00;2.60;;;;;;;17.40;40.42;97829.50;6080715;29;20264;-37
2023/03/20 11:45:49;;;;;;;4.27;2.93;;;;;;;17.82;40.03;97842.34;6082453;29;20231;-37
2023/03/20 11:49:04;;;;;;;3.57;2.73;;;;;;;18.37;39.26;97842.00;6084329;29;20240;-37
2023/03/20 11:52:16;;;;;;;3.03;2.57;;;;;;;18.48;39.00;97844.31;6084582;29;20779;-37
2023/03/20 11:55:32;;;;;;;4.70;2.93;;;;;;;18.47;38.47;97831.94;6084452;29;20272;-37
2023/03/20 11:58:37;;;;;;;2.73;2.40;;;;;;;18.61;38.53;97809.59;6083974;29;20240;-36
2023/03/20 12:01:45;;;;;;;3.37;2.70;;;;;;;18.24;38.77;97844.31;6129815;28;20242;-36
2023/03/20 12:04:48;;;;;;;3.20;2.80;;;;;;;18.12;38.70;97840.41;6134514;28;20238;-35
2023/03/20 12:07:51;;;;;;;4.13;2.97;;;;;;;17.73;39.49;97809.84;6135132;28;20334;-35
2023/03/20 12:11:02;;;;;;;5.80;3.30;;;;;;;17.96;39.90;97818.22;6134212;28;20238;-35
2023/03/20 12:14:10;;;;;;;3.73;2.17;;;;;;;18.42;38.54;97823.06;6132470;28;20326;-35
2023/03/20 12:17:53;;;;;;;3.53;2.47;;;;;;;18.40;38.91;97819.88;6134272;28;20764;-35
2023/03/20 12:21:23;;;;;;;3.80;2.30;;;;;;;17.99;38.93;97833.81;6120364;28;20223;-36
2023/03/20 12:24:43;;;;;;;5.20;2.57;;;;;;;17.58;39.74;97798.34;6130218;28;20304;-35
2023/03/20 12:27:54;;;;;;;3.03;2.47;;;;;;;17.53;39.40;97823.44;6131179;28;20609;-36
2023/03/20 12:31:05;;;;;;;4.43;2.50;;;;;;;17.21;39.67;97797.06;6133831;28;20638;-36
2023/03/20 12:34:28;;;;;;;2.87;2.07;;;;;;;17.67;38.50;97816.31;6134957;28;20245;-36
2023/03/20 12:37:31;;;;;;;4.13;2.10;;;;;;;17.87;38.34;97825.31;6131120;28;20277;-36
2023/03/20 12:40:42;;;;;;;2.27;1.90;;;;;;;17.67;38.40;97804.72;6133791;28;20231;-36
2023/03/20 12:43:59;;;;;;;2.47;1.63;;;;;;;17.63;38.04;97831.44;6130218;28;20692;-37
2023/03/20 12:47:31;;;;;;;2.43;1.90;;;;;;;17.74;38.13;97819.53;6133420;28;20246;-37
2023/03/20 12:50:33;;;;;;;2.87;1.57;;;;;;;17.93;37.29;97826.84;6130542;28;20234;-44
2023/03/20 12:53:43;;;;;;;1.93;1.50;;;;;;;17.85;38.01;97825.59;6133993;28;20250;-36
2023/03/20 12:57:02;;;;;;;3.90;2.17;;;;;;;17.49;38.81;97814.34;6132427;28;20703;-37
2023/03/20 13:00:44;;;;;;;3.50;1.73;;;;;;;17.36;38.82;97817.69;6136756;28;20231;-37
2023/03/20 13:04:31;;;;;;;3.33;2.10;;;;;;;17.18;39.46;97819.16;6106441;29;20359;-37
2023/03/20 13:08:31;;;;;;;4.73;2.00;;;;;;;17.28;39.40;97808.31;6042229;29;20229;-37
2023/03/20 13:11:53;;;;;;;3.83;1.63;;;;;;;17.39;38.72;97817.09;6062511;29;20798;-37
2023/03/20 13:15:11;;;;;;;2.87;1.90;;;;;;;17.36;39.24;97809.59;6071032;29;20247;-37
2023/03/20 13:18:27;;;;;;;2.00;1.80;;;;;;;17.57;39.58;97797.56;6070600;29;20839;-37
2023/03/20 13:21:40;;;;;;;3.67;2.10;;;;;;;17.57;39.80;97808.31;6070902;29;20783;-37
2023/03/20 13:25:04;;;;;;;4.07;2.47;;;;;;;17.43;39.89;97796.59;6076620;29;20830;-37
2023/03/20 13:28:35;;;;;;;3.63;1.80;;;;;;;17.58;38.33;97784.88;6075026;29;20603;-37
2023/03/20 13:31:40;;;;;;;2.97;1.80;;;;;;;18.14;38.22;97795.91;6071304;29;20390;-37
2023/03/20 13:34:54;;;;;;;4.50;1.93;;;;;;;18.43;37.79;97789.63;6071391;29;20724;-37
2023/03/20 13:38:02;;;;;;;2.33;2.07;;;;;;;18.37;38.27;97796.16;6072023;29;20585;-36
2023/03/20 13:41:08;;;;;;;2.10;1.90;;;;;;;18.03;38.64;97806.00;6071748;29;20251;-36
2023/03/20 13:44:14;;;;;;;2.50;1.67;;;;;;;18.16;38.28;97799.09;6128888;28;20230;-36
2023/03/20 13:47:25;;;;;;;1.77;1.60;;;;;;;17.99;38.17;97802.28;6131862;28;20957;-36
2023/03/20 13:50:35;;;;;;;3.03;1.60;;;;;;;17.76;38.90;97793.09;6136319;28;20249;-36
2023/03/20 13:53:54;;;;;;;2.63;1.80;;;;;;;18.12;38.00;97792.69;6128666;28;20234;-36
2023/03/20 13:57:27;;;;;;;2.00;1.60;;;;;;;17.93;38.36;97789.97;6126571;28;20804;-36
2023/03/20 14:00:56;;;;;;;1.77;1.67;;;;;;;17.90;38.84;97814.78;6128947;28;20738;-36
2023/03/20 14:04:00;;;;;;;6.87;1.83;;;;;;;17.77;38.40;97794.69;6132427;28;20242;-36
2023/03/20 14:07:42;;;;;;;3.47;1.93;;;;;;;17.79;38.79;97797.91;6130495;28;20243;-36
2023/03/20 14:10:44;;;;;;;2.73;1.97;;;;;;;17.48;39.39;97804.63;6128679;28;20230;-36
2023/03/20 14:13:50;;;;;;;2.70;2.50;;;;;;;16.83;41.13;97804.88;6132070;28;20309;-36
2023/03/20 14:17:08;;;;;;;2.63;2.23;;;;;;;16.07;42.27;97781.84;6129611;28;20239;-36
2023/03/20 14:20:23;;;;;;;2.50;2.30;;;;;;;16.04;42.97;97760.06;6131979;28;20234;-36
2023/03/20 14:23:34;;;;;;;2.60;2.40;;;;;;;16.40;42.90;97804.56;6128382;28;20317;-36
2023/03/20 14:26:41;;;;;;;2.50;2.30;;;;;;;16.59;42.52;97803.91;6131410;28;20312;-36
2023/03/20 14:29:43;;;;;;;4.03;2.90;;;;;;;16.37;42.52;97797.03;6127653;28;20312;-36
2023/03/20 14:32:58;;;;;;;3.00;2.80;;;;;;;16.33;43.17;97797.84;6131368;28;20234;-37
2023/03/20 14:36:21;;;;;;;3.07;2.60;;;;;;;16.17;43.07;97808.69;6128175;28;20240;-37
2023/03/20 14:39:26;;;;;;;3.80;2.33;;;;;;;16.32;43.29;97794.38;6125452;28;20238;-37
2023/03/20 14:42:37;;;;;;;5.50;2.70;;;;;;;16.45;42.84;97791.09;6130838;28;20234;-37
2023/03/20 14:45:50;;;;;;;3.00;2.67;;;;;;;16.26;43.26;97790.09;6132591;28;20816;-37
2023/03/20 14:48:54;;;;;;;4.00;2.70;;;;;;;15.98;43.65;97767.34;6129139;28;20365;-37
2023/03/20 14:52:18;;;;;;;2.23;2.03;;;;;;;16.01;44.23;97782.94;6129409;28;20741;-35